createdAt,value
2022-08-29T00:00:58.865Z,101052.25
2022-08-29T00:03:25.664Z,101063.88
2022-08-29T00:05:53.205Z,101065.72
2022-08-29T00:08:21.364Z,101064.88
2022-08-29T00:10:48.027Z,101060.53
2022-08-29T00:13:15.600Z,101067.69
2022-08-29T00:15:45.127Z,101064.09
2022-08-29T00:18:16.455Z,101063.31
2022-08-29T00:20:44.329Z,101065.16
2022-08-29T00:23:12.369Z,101058.28
2022-08-29T00:25:39.552Z,101059.16
2022-08-29T00:28:07.119Z,101049.47
2022-08-29T00:30:34.664Z,101056.41
2022-08-29T00:33:01.324Z,101061.03
2022-08-29T00:35:35.969Z,101066.44
2022-08-29T00:38:05.560Z,101073.47
2022-08-29T00:40:39.567Z,101070.94
2022-08-29T00:43:07.462Z,101071.03
2022-08-29T00:45:34.880Z,101059.50
2022-08-29T00:48:12.292Z,101061.28
2022-08-29T00:50:43.093Z,101067.56
2022-08-29T00:53:12.869Z,101072.09
2022-08-29T00:55:40.571Z,101071.34
2022-08-29T00:58:21.745Z,101076.66
2022-08-29T01:00:49.319Z,101070.59
2022-08-29T01:03:16.191Z,101068.81
2022-08-29T01:05:43.033Z,101073.00
2022-08-29T01:08:09.815Z,101068.69
2022-08-29T01:10:55.053Z,101065.19
2022-08-29T01:13:31.200Z,101066.78
2022-08-29T01:15:58.440Z,101065.81
2022-08-29T01:18:26.467Z,101068.41
2022-08-29T01:21:30.565Z,101062.16
2022-08-29T01:24:27.057Z,101067.31
2022-08-29T01:26:57.402Z,101066.41
2022-08-29T01:29:24.131Z,101063.66
2022-08-29T01:31:56.906Z,101060.94
2022-08-29T01:34:27.088Z,101065.22
2022-08-29T01:36:56.896Z,101064.31
2022-08-29T01:39:28.539Z,101061.66
2022-08-29T01:41:57.076Z,101065.19
2022-08-29T01:44:26.377Z,101067.00
2022-08-29T01:47:02.227Z,101067.03
2022-08-29T01:49:30.027Z,101071.69
2022-08-29T01:51:56.990Z,101068.19
2022-08-29T01:54:23.725Z,101070.94
2022-08-29T01:56:52.128Z,101079.84
2022-08-29T01:59:21.238Z,101086.09
2022-08-29T02:01:51.275Z,101078.28
2022-08-29T02:04:17.974Z,101080.22
2022-08-29T02:06:45.705Z,101086.41
2022-08-29T02:09:12.336Z,101081.19
2022-08-29T02:11:39.964Z,101082.13
2022-08-29T02:14:07.351Z,101086.59
2022-08-29T02:16:36.521Z,101082.22
2022-08-29T02:19:03.630Z,101086.56
2022-08-29T02:21:30.752Z,101079.63
2022-08-29T02:24:11.331Z,101078.84
2022-08-29T02:26:46.707Z,101085.94
2022-08-29T02:29:13.379Z,101081.50
2022-08-29T02:31:40.420Z,101084.22
2022-08-29T02:34:08.063Z,101085.91
2022-08-29T02:36:35.605Z,101087.69
2022-08-29T02:39:02.386Z,101090.22
2022-08-29T02:41:29.073Z,101091.16
2022-08-29T02:43:56.286Z,101090.28
2022-08-29T02:46:22.996Z,101090.22
2022-08-29T02:49:00.531Z,101084.84
2022-08-29T02:51:30.977Z,101085.66
2022-08-29T02:53:57.859Z,101087.41
2022-08-29T02:56:24.621Z,101090.84
2022-08-29T02:58:51.542Z,101087.34
2022-08-29T03:01:20.470Z,101082.88
2022-08-29T03:03:47.219Z,101081.19
2022-08-29T03:06:14.013Z,101088.47
2022-08-29T03:08:40.844Z,101089.84
2022-08-29T03:11:07.933Z,101093.69
2022-08-29T03:13:34.806Z,101084.81
2022-08-29T03:16:02.354Z,101090.88
2022-08-29T03:18:29.791Z,101080.09
2022-08-29T03:20:56.533Z,101080.63
2022-08-29T03:23:23.201Z,101082.28
2022-08-29T03:25:50.136Z,101076.75
2022-08-29T03:28:16.780Z,101080.19
2022-08-29T03:30:43.447Z,101072.25
2022-08-29T03:33:11.944Z,101077.34
2022-08-29T03:35:39.147Z,101066.69
2022-08-29T03:38:06.121Z,101070.19
2022-08-29T03:40:32.973Z,101063.06
2022-08-29T03:43:00.511Z,101067.16
2022-08-29T03:45:27.135Z,101058.94
2022-08-29T03:47:53.908Z,101061.75
2022-08-29T03:50:21.401Z,101066.94
2022-08-29T03:52:48.765Z,101063.31
2022-08-29T03:55:16.273Z,101061.41
2022-08-29T03:57:43.259Z,101060.53
2022-08-29T04:00:13.713Z,101063.75
2022-08-29T04:02:40.739Z,101063.78
2022-08-29T04:05:08.673Z,101061.88
2022-08-29T04:07:45.289Z,101064.19
2022-08-29T04:10:15.489Z,101064.28
2022-08-29T04:12:42.151Z,101066.97
2022-08-29T04:15:09.830Z,101070.72
2022-08-29T04:17:37.304Z,101073.66
2022-08-29T04:20:25.085Z,101082.66
2022-08-29T04:22:53.159Z,101084.50
2022-08-29T04:25:23.707Z,101078.28
2022-08-29T04:27:51.080Z,101080.00
2022-08-29T04:30:20.331Z,101079.94
2022-08-29T04:32:47.382Z,101077.81
2022-08-29T04:35:16.142Z,101082.97
2022-08-29T04:37:43.800Z,101085.63
2022-08-29T04:40:15.426Z,101089.09
2022-08-29T04:42:42.748Z,101090.78
2022-08-29T04:45:12.388Z,101093.28
2022-08-29T04:47:39.759Z,101096.69
2022-08-29T04:50:08.763Z,101087.66
2022-08-29T04:52:36.996Z,101084.06
2022-08-29T04:55:04.949Z,101087.66
2022-08-29T04:57:31.708Z,101083.81
2022-08-29T04:59:59.872Z,101081.94
2022-08-29T05:02:27.853Z,101090.84
2022-08-29T05:04:56.775Z,101087.06
2022-08-29T05:07:26.168Z,101090.72
2022-08-29T05:09:58.774Z,101090.81
2022-08-29T05:12:26.099Z,101083.75
2022-08-29T05:14:53.719Z,101080.69
2022-08-29T05:17:21.048Z,101078.91
2022-08-29T05:19:47.995Z,101096.31
2022-08-29T05:22:15.486Z,101092.59
2022-08-29T05:24:42.407Z,101097.03
2022-08-29T05:27:10.621Z,101100.56
2022-08-29T05:29:40.280Z,101093.28
2022-08-29T05:32:08.590Z,101092.22
2022-08-29T05:34:36.512Z,101100.94
2022-08-29T05:37:09.374Z,101092.91
2022-08-29T05:39:37.343Z,101099.91
2022-08-29T05:42:05.981Z,101095.84
2022-08-29T05:44:35.437Z,101098.84
2022-08-29T05:47:05.423Z,101088.75
2022-08-29T05:49:32.046Z,101095.75
2022-08-29T05:52:00.708Z,101099.78
2022-08-29T05:54:29.934Z,101094.25
2022-08-29T05:56:57.224Z,101094.97
2022-08-29T05:59:23.853Z,101096.56
2022-08-29T06:01:50.651Z,101096.63
2022-08-29T06:04:17.536Z,101101.09
2022-08-29T06:06:45.271Z,101096.69
2022-08-29T06:09:12.785Z,101106.66
2022-08-29T06:11:39.607Z,101120.75
2022-08-29T06:14:06.689Z,101106.72
2022-08-29T06:16:33.536Z,101116.38
2022-08-29T06:19:00.731Z,101117.28
2022-08-29T06:21:27.560Z,101121.94
2022-08-29T06:23:54.723Z,101120.75
2022-08-29T06:26:21.590Z,101116.44
2022-08-29T06:28:48.398Z,101120.47
2022-08-29T06:31:27.050Z,101117.81
2022-08-29T06:33:55.958Z,101113.53
2022-08-29T06:36:25.404Z,101112.44
2022-08-29T06:38:53.128Z,101119.19
2022-08-29T06:41:19.817Z,101115.50
2022-08-29T06:43:46.503Z,101126.66
2022-08-29T06:46:31.198Z,101124.50
2022-08-29T06:48:59.722Z,101123.41
2022-08-29T06:51:27.363Z,101125.94
2022-08-29T06:53:54.128Z,101122.41
2022-08-29T06:56:20.773Z,101124.88
2022-08-29T06:58:47.791Z,101135.06
2022-08-29T07:01:17.991Z,101144.66
2022-08-29T07:03:45.340Z,101138.47
2022-08-29T07:06:12.456Z,101134.59
2022-08-29T07:08:55.283Z,101146.13
2022-08-29T07:11:24.840Z,101130.66
2022-08-29T07:13:51.586Z,101133.16
2022-08-29T07:16:19.017Z,101134.72
2022-08-29T07:18:46.757Z,101138.34
2022-08-29T07:21:20.271Z,101132.13
2022-08-29T07:23:48.713Z,101136.19
2022-08-29T07:26:18.238Z,101138.81
2022-08-29T07:28:47.416Z,101145.84
2022-08-29T07:31:14.600Z,101149.56
2022-08-29T07:33:41.578Z,101139.06
2022-08-29T07:36:08.595Z,101148.59
2022-08-29T07:38:35.680Z,101138.03
2022-08-29T07:41:06.325Z,101141.03
2022-08-29T07:43:33.363Z,101140.16
2022-08-29T07:46:06.645Z,101143.63
2022-08-29T07:48:33.393Z,101144.56
2022-08-29T07:51:00.045Z,101150.91
2022-08-29T07:53:26.689Z,101146.56
2022-08-29T07:55:53.376Z,101155.06
2022-08-29T07:58:19.998Z,101161.22
2022-08-29T08:00:46.858Z,101163.50
2022-08-29T08:03:14.351Z,101170.09
2022-08-29T08:05:41.132Z,101168.59
2022-08-29T08:08:15.258Z,101175.44
2022-08-29T08:10:42.586Z,101167.56
2022-08-29T08:13:09.343Z,101163.94
2022-08-29T08:15:38.335Z,101165.94
2022-08-29T08:18:05.685Z,101180.66
2022-08-29T08:20:32.846Z,101182.91
2022-08-29T08:22:59.812Z,101176.69
2022-08-29T08:25:26.629Z,101170.78
2022-08-29T08:27:53.925Z,101182.75
2022-08-29T08:30:21.059Z,101185.63
2022-08-29T08:32:52.724Z,101183.16
2022-08-29T08:35:22.982Z,101182.78
2022-08-29T08:37:49.849Z,101185.34
2022-08-29T08:40:21.931Z,101188.34
2022-08-29T08:42:50.723Z,101186.09
2022-08-29T08:45:26.881Z,101185.44
2022-08-29T08:48:00.626Z,101188.34
2022-08-29T08:50:35.098Z,101184.06
2022-08-29T08:53:17.032Z,101187.31
2022-08-29T08:55:48.638Z,101189.88
2022-08-29T08:58:35.432Z,101191.03
2022-08-29T09:01:16.662Z,101187.63
2022-08-29T09:03:48.828Z,101196.91
2022-08-29T09:06:27.542Z,101183.81
2022-08-29T09:09:20.899Z,101181.63
2022-08-29T09:12:10.135Z,101183.09
2022-08-29T09:14:48.555Z,101178.09
2022-08-29T09:17:23.117Z,101181.72
2022-08-29T09:19:51.001Z,101184.19
2022-08-29T09:22:25.277Z,101183.88
2022-08-29T09:24:59.796Z,101182.72
2022-08-29T09:27:30.171Z,101181.19
2022-08-29T09:30:13.818Z,101182.31
2022-08-29T09:33:02.999Z,101178.84
2022-08-29T09:35:44.625Z,101180.03
2022-08-29T09:38:17.372Z,101181.22
2022-08-29T09:40:50.101Z,101188.78
2022-08-29T09:43:28.815Z,101183.44
2022-08-29T09:46:08.815Z,101186.50
2022-08-29T09:48:36.843Z,101187.66
2022-08-29T09:51:24.490Z,101190.72
2022-08-29T09:54:11.117Z,101187.78
2022-08-29T09:56:40.839Z,101200.09
2022-08-29T09:59:20.274Z,101198.94
2022-08-29T10:01:47.065Z,101194.53
2022-08-29T10:04:14.314Z,101208.44
2022-08-29T10:06:45.389Z,101203.72
2022-08-29T10:09:28.490Z,101204.50
2022-08-29T10:12:01.514Z,101210.88
2022-08-29T10:14:38.797Z,101203.72
2022-08-29T10:17:30.078Z,101203.19
2022-08-29T10:19:56.933Z,101206.69
2022-08-29T10:22:32.446Z,101203.94
2022-08-29T10:25:09.590Z,101200.22
2022-08-29T10:27:57.656Z,101194.78
2022-08-29T10:30:28.704Z,101204.16
2022-08-29T10:33:33.587Z,101211.13
2022-08-29T10:36:12.455Z,101217.53
2022-08-29T10:38:46.807Z,101203.53
2022-08-29T10:41:32.477Z,101214.75
2022-08-29T10:44:23.325Z,101214.91
2022-08-29T10:47:00.688Z,101213.00
2022-08-29T10:49:52.093Z,101217.34
2022-08-29T10:52:27.750Z,101216.97
2022-08-29T10:55:03.920Z,101212.31
2022-08-29T10:58:03.674Z,101206.16
2022-08-29T11:00:42.428Z,101210.16
2022-08-29T11:03:22.947Z,101209.91
2022-08-29T11:05:55.394Z,101211.81
2022-08-29T11:08:31.927Z,101206.63
2022-08-29T11:10:58.672Z,101213.25
2022-08-29T11:13:36.447Z,101216.31
2022-08-29T11:16:29.680Z,101219.41
2022-08-29T11:19:22.638Z,101223.81
2022-08-29T11:21:55.540Z,101218.69
2022-08-29T11:24:28.152Z,101213.06
2022-08-29T11:27:06.004Z,101212.56
2022-08-29T11:29:41.504Z,101214.41
2022-08-29T11:32:45.569Z,101208.59
2022-08-29T11:35:22.878Z,101213.19
2022-08-29T11:38:11.253Z,101210.09
2022-08-29T11:43:50.599Z,101212.59
2022-08-29T11:46:38.174Z,101216.66
2022-08-29T11:49:26.366Z,101204.84
2022-08-29T11:51:55.908Z,101215.19
2022-08-29T11:54:26.201Z,101216.31
2022-08-29T11:56:58.646Z,101225.38
2022-08-29T11:59:43.940Z,101216.97
2022-08-29T12:02:16.190Z,101228.44
2022-08-29T12:04:59.749Z,101233.75
2022-08-29T12:07:36.009Z,101232.44
2022-08-29T12:10:06.620Z,101228.25
2022-08-29T12:12:44.046Z,101225.59
2022-08-29T12:15:33.727Z,101230.56
2022-08-29T12:18:03.903Z,101232.78
2022-08-29T12:20:30.631Z,101226.16
2022-08-29T12:23:03.806Z,101218.34
2022-08-29T12:25:43.295Z,101221.47
2022-08-29T12:28:16.086Z,101215.38
2022-08-29T12:30:49.913Z,101210.63
2022-08-29T12:33:38.194Z,101217.75
2022-08-29T12:36:37.978Z,101212.44
2022-08-29T12:39:29.101Z,101217.41
2022-08-29T12:42:11.913Z,101202.72
2022-08-29T12:44:41.362Z,101202.44
2022-08-29T12:47:14.491Z,101206.38
2022-08-29T12:49:50.839Z,101214.22
2022-08-29T12:52:26.968Z,101221.56
2022-08-29T12:54:56.569Z,101221.28
2022-08-29T12:57:36.866Z,101215.16
2022-08-29T13:00:10.457Z,101213.59
2022-08-29T13:02:38.334Z,101216.09
2022-08-29T13:05:23.428Z,101208.00
2022-08-29T13:07:59.772Z,101220.66
2022-08-29T13:10:28.397Z,101208.81
2022-08-29T13:13:10.743Z,101203.13
2022-08-29T13:15:37.834Z,101202.41
2022-08-29T13:18:05.131Z,101200.22
2022-08-29T13:20:37.944Z,101197.63
2022-08-29T13:23:21.655Z,101192.84
2022-08-29T13:26:06.783Z,101188.25
2022-08-29T13:28:56.448Z,101191.44
2022-08-29T13:31:38.144Z,101187.25
2022-08-29T13:34:15.872Z,101179.31
2022-08-29T13:36:50.688Z,101175.88
2022-08-29T13:39:17.299Z,101170.06
2022-08-29T13:41:46.687Z,101171.97
2022-08-29T13:44:22.554Z,101171.78
2022-08-29T13:46:51.517Z,101174.91
2022-08-29T13:49:23.525Z,101171.44
2022-08-29T13:51:50.321Z,101177.66
2022-08-29T13:54:17.001Z,101180.72
2022-08-29T13:56:46.451Z,101174.97
2022-08-29T13:59:21.467Z,101169.69
2022-08-29T14:02:18.321Z,101173.66
2022-08-29T14:04:40.423Z,101174.84
2022-08-29T14:07:15.510Z,101179.63
2022-08-29T14:09:44.419Z,101179.41
2022-08-29T14:12:12.598Z,101182.88
2022-08-29T14:14:39.277Z,101187.56
2022-08-29T14:17:06.166Z,101184.09
2022-08-29T14:22:00.593Z,101194.25
2022-08-29T14:24:29.802Z,101193.94
2022-08-29T14:27:01.617Z,101184.00
2022-08-29T14:29:33.310Z,101187.22
2022-08-29T14:32:03.317Z,101189.06
2022-08-29T14:34:32.435Z,101182.72
2022-08-29T14:37:00.735Z,101188.84
2022-08-29T14:39:27.954Z,101196.38
2022-08-29T14:41:54.880Z,101193.50
2022-08-29T14:44:24.378Z,101197.06
2022-08-29T14:46:51.705Z,101191.06
2022-08-29T14:49:19.147Z,101193.19
2022-08-29T14:51:45.942Z,101194.00
2022-08-29T14:54:12.974Z,101187.84
2022-08-29T14:56:49.923Z,101189.91
2022-08-29T14:59:18.888Z,101191.25
2022-08-29T15:01:49.946Z,101185.03
2022-08-29T15:04:21.853Z,101190.69
2022-08-29T15:07:08.860Z,101196.16
2022-08-29T15:09:35.505Z,101192.97
2022-08-29T15:12:02.969Z,101190.47
2022-08-29T15:14:29.849Z,101192.38
2022-08-29T15:16:56.462Z,101192.56
2022-08-29T15:22:10.224Z,101192.44
2022-08-29T15:24:39.460Z,101186.19
2022-08-29T15:27:06.594Z,101189.94
2022-08-29T15:29:34.243Z,101182.63
2022-08-29T15:32:01.095Z,101184.19
2022-08-29T15:34:29.222Z,101182.88
2022-08-29T15:36:57.038Z,101190.53
2022-08-29T15:39:25.421Z,101190.47
2022-08-29T15:41:52.090Z,101191.56
2022-08-29T15:44:18.871Z,101195.22
2022-08-29T15:46:51.036Z,101198.72
2022-08-29T15:49:19.347Z,101191.97
2022-08-29T15:51:46.706Z,101196.41
2022-08-29T15:54:14.214Z,101193.06
2022-08-29T15:56:40.983Z,101194.78
2022-08-29T15:59:09.611Z,101184.66
2022-08-29T16:01:42.274Z,101192.63
2022-08-29T16:04:10.058Z,101185.81
2022-08-29T16:06:37.614Z,101186.22
2022-08-29T16:09:15.097Z,101186.16
2022-08-29T16:11:47.441Z,101190.16
2022-08-29T16:17:02.093Z,101186.09
2022-08-29T16:19:29.286Z,101194.25
2022-08-29T16:22:00.058Z,101191.25
2022-08-29T16:24:28.586Z,101192.31
2022-08-29T16:26:55.509Z,101192.56
2022-08-29T16:29:25.475Z,101187.00
2022-08-29T16:31:56.052Z,101179.94
2022-08-29T16:34:26.099Z,101184.47
2022-08-29T16:36:56.517Z,101184.88
2022-08-29T16:39:23.214Z,101192.91
2022-08-29T16:41:50.135Z,101191.78
2022-08-29T16:44:16.817Z,101196.78
2022-08-29T16:46:43.587Z,101189.94
2022-08-29T16:49:10.262Z,101189.09
2022-08-29T16:51:37.337Z,101190.44
2022-08-29T16:54:04.132Z,101194.66
2022-08-29T16:56:32.810Z,101192.94
2022-08-29T16:59:04.080Z,101200.47
2022-08-29T17:01:37.554Z,101200.09
2022-08-29T17:04:07.903Z,101204.25
2022-08-29T17:06:34.908Z,101209.53
2022-08-29T17:09:05.281Z,101210.78
2022-08-29T17:11:35.106Z,101212.78
2022-08-29T17:14:01.770Z,101207.97
2022-08-29T17:16:28.448Z,101214.28
2022-08-29T17:18:55.225Z,101217.63
2022-08-29T17:21:21.825Z,101216.66
2022-08-29T17:23:48.835Z,101215.78
2022-08-29T17:26:17.287Z,101219.88
2022-08-29T17:28:45.823Z,101222.41
2022-08-29T17:31:13.284Z,101216.38
2022-08-29T17:33:40.661Z,101223.13
2022-08-29T17:36:08.807Z,101220.81
2022-08-29T17:38:35.600Z,101226.16
2022-08-29T17:41:05.194Z,101226.78
2022-08-29T17:43:42.880Z,101225.25
2022-08-29T17:46:09.805Z,101230.91
2022-08-29T17:48:36.597Z,101226.03
2022-08-29T17:51:04.057Z,101223.78
2022-08-29T17:53:32.448Z,101226.78
2022-08-29T17:56:09.516Z,101230.00
2022-08-29T17:58:36.161Z,101232.22
2022-08-29T18:01:02.947Z,101230.59
2022-08-29T18:03:29.653Z,101228.25
2022-08-29T18:05:56.278Z,101238.47
2022-08-29T18:08:22.935Z,101236.50
2022-08-29T18:10:49.664Z,101243.53
2022-08-29T18:13:19.815Z,101245.22
2022-08-29T18:15:48.371Z,101245.22
2022-08-29T18:18:20.067Z,101248.22
2022-08-29T18:20:47.072Z,101251.53
2022-08-29T18:23:13.744Z,101268.28
2022-08-29T18:25:40.440Z,101263.28
2022-08-29T18:28:08.351Z,101261.44
2022-08-29T18:30:35.533Z,101274.34
2022-08-29T18:33:02.236Z,101273.56
2022-08-29T18:35:29.089Z,101270.22
2022-08-29T18:37:55.842Z,101274.13
2022-08-29T18:40:22.686Z,101268.22
2022-08-29T18:42:49.544Z,101277.75
2022-08-29T18:45:16.379Z,101281.28
2022-08-29T18:47:43.187Z,101278.88
2022-08-29T18:50:29.090Z,101288.38
2022-08-29T18:52:56.651Z,101295.75
2022-08-29T18:55:23.877Z,101288.00
2022-08-29T18:57:52.173Z,101295.81
2022-08-29T19:00:19.247Z,101295.34
2022-08-29T19:02:46.070Z,101300.13
2022-08-29T19:05:13.146Z,101300.41
2022-08-29T19:07:39.842Z,101313.56
2022-08-29T19:10:06.863Z,101317.81
2022-08-29T19:12:33.832Z,101320.75
2022-08-29T19:15:00.479Z,101316.34
2022-08-29T19:17:27.370Z,101309.84
2022-08-29T19:20:12.887Z,101314.50
2022-08-29T19:22:39.542Z,101316.53
2022-08-29T19:25:09.083Z,101312.75
2022-08-29T19:27:43.710Z,101318.81
2022-08-29T19:30:12.376Z,101328.50
2022-08-29T19:32:39.319Z,101331.44
2022-08-29T19:35:06.914Z,101333.31
2022-08-29T19:37:33.694Z,101329.84
2022-08-29T19:40:01.381Z,101328.91
2022-08-29T19:42:28.372Z,101329.28
2022-08-29T19:44:56.468Z,101333.84
2022-08-29T19:47:23.967Z,101338.41
2022-08-29T19:49:51.667Z,101335.84
2022-08-29T19:52:18.321Z,101336.63
2022-08-29T19:54:45.022Z,101329.94
2022-08-29T19:57:14.662Z,101341.66
2022-08-29T19:59:42.244Z,101336.56
2022-08-29T20:02:10.881Z,101330.59
2022-08-29T20:04:38.335Z,101341.34
2022-08-29T20:07:08.276Z,101343.97
2022-08-29T20:09:35.167Z,101349.50
2022-08-29T20:12:06.507Z,101349.66
2022-08-29T20:14:34.461Z,101331.72
2022-08-29T20:17:07.495Z,101344.19
2022-08-29T20:19:37.513Z,101339.13
2022-08-29T20:22:10.398Z,101340.84
2022-08-29T20:24:37.481Z,101345.38
2022-08-29T20:27:05.511Z,101345.78
2022-08-29T20:29:32.225Z,101355.56
2022-08-29T20:32:00.427Z,101354.69
2022-08-29T20:34:29.713Z,101354.78
2022-08-29T20:37:14.151Z,101353.09
2022-08-29T20:39:42.131Z,101353.25
2022-08-29T20:42:09.397Z,101352.28
2022-08-29T20:44:37.967Z,101355.00
2022-08-29T20:47:09.126Z,101356.84
2022-08-29T20:49:40.882Z,101353.38
2022-08-29T20:52:12.786Z,101355.97
2022-08-29T20:54:41.595Z,101349.38
2022-08-29T20:57:14.902Z,101355.56
2022-08-29T20:59:42.764Z,101351.97
2022-08-29T21:02:10.049Z,101358.22
2022-08-29T21:04:56.121Z,101364.31
2022-08-29T21:07:22.794Z,101371.13
2022-08-29T21:09:54.105Z,101369.13
2022-08-29T21:12:21.080Z,101367.31
2022-08-29T21:14:48.192Z,101372.66
2022-08-29T21:17:15.941Z,101375.25
2022-08-29T21:19:42.704Z,101369.94
2022-08-29T21:22:12.243Z,101371.00
2022-08-29T21:24:39.460Z,101372.69
2022-08-29T21:27:06.151Z,101372.69
2022-08-29T21:29:32.801Z,101366.34
2022-08-29T21:31:59.559Z,101372.84
2022-08-29T21:34:26.299Z,101370.41
2022-08-29T21:36:53.005Z,101366.19
2022-08-29T21:39:28.050Z,101366.06
2022-08-29T21:41:55.490Z,101365.41
2022-08-29T21:44:22.414Z,101365.47
2022-08-29T21:46:49.214Z,101362.66
2022-08-29T21:49:18.664Z,101365.53
2022-08-29T21:51:46.531Z,101371.41
2022-08-29T21:54:14.999Z,101362.59
2022-08-29T21:56:42.407Z,101357.94
2022-08-29T21:59:10.201Z,101368.78
2022-08-29T22:01:39.022Z,101361.66
2022-08-29T22:04:09.960Z,101364.88
2022-08-29T22:06:39.734Z,101361.28
2022-08-29T22:09:14.692Z,101367.53
2022-08-29T22:11:43.003Z,101365.66
2022-08-29T22:14:09.922Z,101374.66
2022-08-29T22:16:37.302Z,101371.91
2022-08-29T22:19:14.213Z,101370.97
2022-08-29T22:21:47.908Z,101377.00
2022-08-29T22:24:15.501Z,101372.31
2022-08-29T22:26:43.440Z,101375.03
2022-08-29T22:29:12.019Z,101376.88
2022-08-29T22:31:39.118Z,101381.28
2022-08-29T22:34:09.820Z,101374.94
2022-08-29T22:36:36.458Z,101376.78
2022-08-29T22:39:03.374Z,101381.22
2022-08-29T22:41:30.050Z,101387.13
2022-08-29T22:44:35.768Z,101379.25
2022-08-29T22:46:44.946Z,101385.59
2022-08-29T22:49:12.292Z,101388.22
2022-08-29T22:51:39.038Z,101387.25
2022-08-29T22:54:24.438Z,101382.66
2022-08-29T22:56:52.619Z,101395.66
2022-08-29T22:59:24.109Z,101398.38
2022-08-29T23:01:50.959Z,101388.56
2022-08-29T23:04:17.773Z,101387.88
2022-08-29T23:06:44.571Z,101386.13
2022-08-29T23:09:12.483Z,101386.91
2022-08-29T23:11:39.790Z,101387.59
2022-08-29T23:14:06.898Z,101384.19
2022-08-29T23:16:34.714Z,101384.41
2022-08-29T23:19:02.269Z,101391.41
2022-08-29T23:21:31.056Z,101386.91
2022-08-29T23:23:58.285Z,101382.72
2022-08-29T23:26:25.526Z,101384.53
2022-08-29T23:28:53.324Z,101383.81
2022-08-29T23:31:21.654Z,101385.38
2022-08-29T23:33:51.906Z,101389.13
2022-08-29T23:36:19.444Z,101387.34
2022-08-29T23:38:46.405Z,101395.19
2022-08-29T23:41:15.407Z,101383.59
2022-08-29T23:43:42.459Z,101390.06
2022-08-29T23:46:09.284Z,101393.59
2022-08-29T23:48:35.951Z,101388.41
2022-08-29T23:51:08.064Z,101388.25
2022-08-29T23:53:35.276Z,101382.88
2022-08-29T23:56:06.971Z,101392.91
2022-08-29T23:58:33.686Z,101385.69
